Time;durP1;ratioP1;P1;durP2;ratioP2;P2;SDS_P1;SDS_P2;PMS_P1;PMS_P2;Temp;Humidity;BMP_temperature;BMP_pressure;BME280_temperature;BME280_humidity;BME280_pressure;Samples;Min_cycle;Max_cycle;Signal;HPM_P1;HPM_P2
2021/08/11 12:19:48;;;;;;;14.13;4.97;;;;;;;28.26;53.33;99576.02;1703260;82;21132;-34
2021/08/11 12:22:31;;;;;;;12.37;4.30;;;;;;;28.39;53.00;99570.48;1696145;82;21033;-40
2021/08/11 12:24:58;;;;;;;10.82;4.62;;;;;;;28.44;52.58;99572.78;1691405;83;21556;-39
2021/08/11 12:27:26;;;;;;;8.00;4.20;;;;;;;28.43;52.39;99577.31;1692682;84;21159;-40
2021/08/11 12:30:20;;;;;;;7.40;4.97;;;;;;;28.33;52.90;99578.58;1650657;86;21089;-33
2021/08/11 12:32:44;;;;;;;8.70;4.87;;;;;;;28.22;52.17;99576.41;1695021;82;21074;-33
2021/08/11 12:35:12;;;;;;;12.10;4.65;;;;;;;28.23;53.74;99579.45;1722082;82;21015;-40
2021/08/11 12:37:47;;;;;;;8.68;4.92;;;;;;;28.38;52.29;99574.66;1714075;83;21117;-39
2021/08/11 12:40:29;;;;;;;16.37;5.62;;;;;;;28.56;52.18;99569.88;1716867;82;21588;-39
2021/08/11 12:42:58;;;;;;;6.50;4.58;;;;;;;28.72;51.81;99566.73;1667928;85;21062;-40
2021/08/11 12:45:25;;;;;;;8.28;4.20;;;;;;;28.85;51.61;99574.58;1716228;82;21095;-34
2021/08/11 12:47:51;;;;;;;8.35;4.58;;;;;;;28.89;51.29;99569.30;1731339;82;21021;-34
2021/08/11 12:50:20;;;;;;;8.05;4.83;;;;;;;28.95;50.43;99569.29;1699536;82;21069;-39
2021/08/11 12:52:57;;;;;;;9.70;4.70;;;;;;;28.96;50.42;99574.53;1726563;82;21002;-40
2021/08/11 12:55:36;;;;;;;7.45;4.45;;;;;;;28.89;50.15;99577.38;1712399;82;21074;-34
2021/08/11 12:58:03;;;;;;;5.58;4.15;;;;;;;28.68;51.53;99580.08;1718262;82;21030;-34
2021/08/11 13:00:43;;;;;;;7.33;4.40;;;;;;;28.56;51.03;99578.45;1734896;83;21069;-33
2021/08/11 13:03:12;;;;;;;7.20;4.78;;;;;;;28.49;50.64;99574.59;1723265;82;21033;-40
2021/08/11 13:05:52;;;;;;;10.23;4.33;;;;;;;28.40;50.85;99584.78;1714395;82;21009;-34
2021/08/11 13:08:18;;;;;;;6.55;4.28;;;;;;;28.25;51.15;99581.54;1718457;82;20966;-41
2021/08/11 13:10:56;;;;;;;8.18;5.10;;;;;;;28.21;52.22;99578.73;1735654;82;21164;-40
2021/08/11 13:13:26;;;;;;;9.03;4.47;;;;;;;28.23;52.61;99576.77;1731863;82;21016;-34
2021/08/11 13:16:14;;;;;;;9.88;4.65;;;;;;;28.30;53.33;99577.97;1736055;83;21085;-35
2021/08/11 13:18:41;;;;;;;6.53;4.30;;;;;;;28.38;52.19;99578.19;1713554;82;21120;-34
2021/08/11 13:21:08;;;;;;;8.33;4.50;;;;;;;28.34;52.65;99580.77;1733308;82;21505;-41
2021/08/11 13:23:41;;;;;;;5.72;4.58;;;;;;;28.23;53.03;99576.27;1715200;82;21033;-40
2021/08/11 13:26:08;;;;;;;6.15;4.35;;;;;;;28.06;53.26;99569.65;1711321;82;21108;-41
2021/08/11 13:28:41;;;;;;;5.62;4.65;;;;;;;27.94;53.46;99572.48;1731708;82;21596;-35
2021/08/11 13:31:09;;;;;;;4.78;4.30;;;;;;;27.87;53.79;99574.84;1735193;82;21660;-41
2021/08/11 13:33:35;;;;;;;8.65;4.62;;;;;;;27.80;53.69;99574.98;1693159;83;21128;-41
2021/08/11 13:36:03;;;;;;;7.30;4.08;;;;;;;27.73;52.83;99567.08;1650716;86;21084;-41
2021/08/11 13:38:29;;;;;;;7.35;4.20;;;;;;;27.68;52.38;99570.59;1681977;84;21017;-40
2021/08/11 13:40:56;;;;;;;8.03;4.58;;;;;;;27.63;52.56;99568.28;1651033;87;21156;-34
2021/08/11 13:43:23;;;;;;;7.03;3.98;;;;;;;27.59;52.97;99570.36;1635495;87;21083;-34
2021/08/11 13:45:50;;;;;;;7.72;4.12;;;;;;;27.55;53.12;99572.10;1632296;85;21144;-35
2021/08/11 13:48:17;;;;;;;4.08;3.67;;;;;;;27.51;53.01;99571.98;1693162;83;21623;-34
2021/08/11 13:50:44;;;;;;;6.50;3.98;;;;;;;27.48;52.72;99567.69;1655141;86;21076;-34
2021/08/11 13:53:11;;;;;;;5.35;3.22;;;;;;;27.46;52.53;99569.66;1635269;87;21087;-40
2021/08/11 13:55:37;;;;;;;6.12;3.98;;;;;;;27.47;52.68;99563.30;1653474;86;21049;-40
2021/08/11 13:58:04;;;;;;;6.95;3.67;;;;;;;27.52;52.48;99565.63;1639661;87;21076;-39
2021/08/11 14:00:31;;;;;;;8.43;4.17;;;;;;;27.65;52.22;99566.31;1635287;86;21107;-35
2021/08/11 14:02:58;;;;;;;11.12;3.95;;;;;;;27.83;52.21;99556.79;1637760;86;21119;-40
2021/08/11 14:05:24;;;;;;;8.40;3.37;;;;;;;28.01;50.70;99561.12;1632356;87;21539;-34
2021/08/11 14:07:51;;;;;;;7.75;4.22;;;;;;;28.15;50.41;99553.72;1640569;87;21056;-34
2021/08/11 14:10:17;;;;;;;10.43;3.42;;;;;;;28.31;50.80;99550.09;1632124;87;21158;-41
2021/08/11 14:12:44;;;;;;;8.15;4.33;;;;;;;28.48;50.36;99548.68;1656077;84;21680;-41
2021/08/11 14:15:12;;;;;;;11.33;3.85;;;;;;;28.64;51.06;99542.30;1639743;87;21123;-35
2021/08/11 14:17:39;;;;;;;8.50;3.70;;;;;;;28.70;48.61;99546.30;1634436;87;21063;-35
2021/08/11 14:20:07;;;;;;;5.10;3.50;;;;;;;28.71;48.92;99539.96;1643418;86;21049;-34
2021/08/11 14:22:35;;;;;;;8.38;4.05;;;;;;;28.75;49.07;99545.41;1630019;87;22705;-41
2021/08/11 14:25:01;;;;;;;5.20;3.40;;;;;;;28.80;48.95;99544.52;1631734;86;21579;-35
2021/08/11 14:27:29;;;;;;;6.85;3.35;;;;;;;28.82;48.23;99542.08;1640043;86;21134;-41
2021/08/11 14:29:55;;;;;;;8.05;3.50;;;;;;;28.80;47.07;99557.48;1637412;87;21092;-34
2021/08/11 14:32:22;;;;;;;4.50;3.50;;;;;;;28.75;47.88;99548.95;1639148;86;21087;-34
2021/08/11 14:34:49;;;;;;;4.80;2.98;;;;;;;28.71;47.70;99556.95;1632918;87;21064;-34
2021/08/11 14:37:15;;;;;;;5.67;3.52;;;;;;;28.62;47.56;99553.21;1635840;87;21488;-35
2021/08/11 14:39:42;;;;;;;6.85;2.95;;;;;;;28.54;47.60;99561.59;1640576;86;21570;-34
2021/08/11 14:42:09;;;;;;;6.70;3.30;;;;;;;28.47;48.03;99559.94;1644292;87;21468;-37
2021/08/11 14:44:35;;;;;;;3.15;2.70;;;;;;;28.45;47.36;99564.57;1648072;85;21494;-34
2021/08/11 14:47:03;;;;;;;7.17;3.27;;;;;;;28.48;47.81;99564.82;1664780;86;21971;-41
2021/08/11 14:49:30;;;;;;;7.37;3.52;;;;;;;28.51;47.85;99551.94;1651737;85;21061;-41
2021/08/11 14:51:56;;;;;;;13.03;4.90;;;;;;;28.48;48.22;99558.95;1706729;83;21119;-36
2021/08/11 14:54:23;;;;;;;8.63;4.50;;;;;;;28.45;48.79;99554.30;1712062;83;21047;-41
2021/08/11 14:56:50;;;;;;;5.35;3.40;;;;;;;28.44;47.87;99562.02;1694437;84;21586;-41
2021/08/11 14:59:16;;;;;;;4.92;2.90;;;;;;;28.41;47.16;99562.27;1655546;86;21112;-41
2021/08/11 15:03:36;;;;;;;4.17;2.70;;;;;;;28.46;47.33;99564.92;1799165;79;22119;-34
2021/08/11 15:06:03;;;;;;;5.15;3.40;;;;;;;28.48;47.34;99568.36;1778721;80;21756;-40
2021/08/11 15:08:30;;;;;;;6.95;3.02;;;;;;;28.62;47.21;99580.12;1756210;82;21091;-34
2021/08/11 15:10:57;;;;;;;6.95;3.30;;;;;;;28.73;46.16;99571.12;1756670;80;21091;-40
2021/08/11 15:13:23;;;;;;;5.90;2.60;;;;;;;28.79;45.85;99576.47;1756404;82;21080;-34
2021/08/11 15:15:50;;;;;;;4.75;3.40;;;;;;;28.85;46.33;99577.27;1742961;82;21608;-40
2021/08/11 15:18:16;;;;;;;3.77;2.90;;;;;;;28.77;46.35;99572.57;1730761;82;21076;-34
2021/08/11 15:20:43;;;;;;;5.00;2.77;;;;;;;28.62;46.53;99577.42;1725562;82;21555;-33
2021/08/11 15:23:12;;;;;;;3.67;2.98;;;;;;;28.46;46.57;99578.38;1728965;83;21563;-39
2021/08/11 15:25:38;;;;;;;6.15;3.00;;;;;;;28.34;47.17;99582.12;1721171;83;20996;-40
2021/08/11 15:28:05;;;;;;;4.53;3.15;;;;;;;28.25;47.74;99582.39;1729462;82;21029;-40
2021/08/11 15:30:33;;;;;;;6.12;3.08;;;;;;;28.15;47.67;99581.95;1725451;82;21072;-40
2021/08/11 15:38:49;;;;;;;4.17;2.90;;;;;;;28.04;47.57;99586.88;1786158;79;28093;-39
2021/08/11 15:41:16;;;;;;;5.97;3.10;;;;;;;27.94;47.46;99596.19;1774373;80;21016;-39
2021/08/11 15:43:43;;;;;;;5.55;3.35;;;;;;;27.89;47.46;99595.74;1795539;80;21000;-39
2021/08/11 15:46:10;;;;;;;6.85;4.25;;;;;;;27.80;48.09;99599.17;1767339;80;21016;-40
2021/08/11 15:48:36;;;;;;;5.10;3.05;;;;;;;27.74;47.93;99599.19;1716405;81;21024;-34
2021/08/11 15:51:03;;;;;;;5.25;3.15;;;;;;;27.67;48.31;99599.30;1704973;84;21071;-34
2021/08/11 15:53:30;;;;;;;5.87;3.05;;;;;;;27.59;48.34;99599.05;1714892;83;21578;-41
2021/08/11 15:55:57;;;;;;;5.80;2.77;;;;;;;27.52;47.73;99599.20;1730808;83;21127;-35
2021/08/11 15:58:24;;;;;;;5.10;3.33;;;;;;;27.44;47.77;99606.55;1704649;83;21111;-40
2021/08/11 16:00:50;;;;;;;6.83;3.08;;;;;;;27.37;47.81;99597.74;1725050;83;21079;-34
2021/08/11 16:03:17;;;;;;;6.03;3.20;;;;;;;27.31;47.68;99607.17;1748790;81;21036;-34
2021/08/11 16:05:44;;;;;;;7.72;5.28;;;;;;;27.23;47.74;99609.11;1760751;81;21138;-34
2021/08/11 16:08:10;;;;;;;7.40;3.60;;;;;;;27.17;47.79;99610.09;1760793;81;21088;-39
2021/08/11 16:10:37;;;;;;;7.37;3.42;;;;;;;27.11;47.82;99619.98;1760662;81;21067;-34
2021/08/11 16:13:04;;;;;;;3.67;3.22;;;;;;;27.05;47.50;99623.97;1760954;81;21051;-34
2021/08/11 16:15:30;;;;;;;7.00;4.15;;;;;;;27.00;47.71;99618.95;1756160;81;20993;-35
2021/08/11 16:17:57;;;;;;;7.78;4.05;;;;;;;26.96;47.93;99626.91;1760501;81;21036;-33
2021/08/11 16:20:24;;;;;;;5.67;4.05;;;;;;;26.91;47.87;99624.21;1756675;81;20977;-40
2021/08/11 16:22:51;;;;;;;4.35;3.30;;;;;;;26.86;48.33;99625.05;1734175;83;21544;-36
